KSAT - San Antonio Intl, TX, US

Issued at 1739 UTC 18 Oct 2019
Updated at 2332 UTC 18 Oct 2019
Potential Impact None Slight Moderate High
Time2251Z 19/00Z 19/01Z 19/02Z 19/03Z 19/04Z 19/05Z 19/06Z 19/07Z 19/08Z 19/09Z 19/10Z 19/11Z 19/12Z>>
Type OBS PRVL PRVL PRVL PRVL PRVL PRVL PRVL PRVL PRVL PRVL PRVL PRVL PRVL
VIS 10 >6 >6 >6 >6 >6 >6 >6 >6 >6 6 6 4 4
CIG -- -- -- -- -- -- -- -- -- -- 15 15 7 7
Cover CLR FEW FEW FEW FEW FEW FEW FEW FEW FEW BKN BKN OVC OVC
FltCat VFR VFR VFR VFR VFR VFR VFR VFR VFR VFR MVFR MVFR IFR IFR
WX -- -- -- -- -- -- -- -- -- -- BR BR BR BR
WDir 150 160 160 160 160 160 160 160 160 160 180 180 230 230
WSpd 7 5 5 5 5 5 5 5 5 5 4 4 3 3
WGst -- -- -- -- -- -- -- -- -- -- -- -- -- --
Raw TAF
KSAT 181739Z 1818/1924 16005KT P6SM FEW250
  FM190900 18004KT 6SM BR BKN015
  FM191100 23003KT 4SM BR OVC007
  FM191500 23005KT 6SM BR OVC015
  FM191700 23005KT P6SM SCT150
  FM192300 34005KT P6SM FEW250


Raw METAR
KSAT 182251Z 15007KT 10SM CLR 28/13 A2973 RMK AO2 SLP050 T02780133
KSAT 182151Z 17008KT 10SM CLR 28/12 A2974 RMK AO2 SLP054 T02780122
KSAT 182051Z 14008KT 10SM CLR 27/12 A2975 RMK AO2 SLP059 T02720117 56030

METAR Board
Radar Display
Forecast Discussion
For situational awareness. Not to be used for flight planning purposes.